createdAt,value
2023-12-07T00:01:35.405Z,16.00
2023-12-07T00:04:07.376Z,15.10
2023-12-07T00:06:39.308Z,14.40
2023-12-07T00:09:11.100Z,15.90
2023-12-07T00:11:42.882Z,18.60
2023-12-07T00:14:14.696Z,17.40
2023-12-07T00:16:46.497Z,16.30
2023-12-07T00:19:18.326Z,17.70
2023-12-07T00:21:50.213Z,17.10
2023-12-07T00:24:22.044Z,17.60
2023-12-07T00:26:54.141Z,17.70
2023-12-07T00:29:25.949Z,18.40
2023-12-07T00:31:57.705Z,21.20
2023-12-07T00:34:29.537Z,19.80
2023-12-07T00:37:01.469Z,18.70
2023-12-07T00:39:33.657Z,18.70
2023-12-07T00:42:05.595Z,19.80
2023-12-07T00:44:40.834Z,19.30
2023-12-07T00:47:12.741Z,14.20
2023-12-07T00:49:44.517Z,14.80
2023-12-07T00:52:16.801Z,13.00
2023-12-07T00:54:48.612Z,17.80
2023-12-07T00:57:20.421Z,18.80
2023-12-07T00:59:52.187Z,17.20
2023-12-07T01:02:24.182Z,17.80
2023-12-07T01:04:56.132Z,17.10
2023-12-07T01:07:28.066Z,19.00
2023-12-07T01:09:59.860Z,16.10
2023-12-07T01:12:31.722Z,18.10
2023-12-07T01:15:03.505Z,18.70
2023-12-07T01:17:35.297Z,16.00
2023-12-07T01:20:12.977Z,17.50
2023-12-07T01:22:46.750Z,16.10
2023-12-07T01:25:23.002Z,17.10
2023-12-07T01:27:56.241Z,12.50
2023-12-07T01:30:28.307Z,13.10
2023-12-07T01:33:00.760Z,12.30
2023-12-07T01:35:32.615Z,12.20
2023-12-07T01:38:05.316Z,12.60
2023-12-07T01:40:37.132Z,19.00
2023-12-07T01:43:09.019Z,19.20
2023-12-07T01:45:40.835Z,17.10
2023-12-07T01:48:12.840Z,17.40
2023-12-07T01:50:44.774Z,19.80
2023-12-07T01:53:18.181Z,19.10
2023-12-07T01:55:50.294Z,18.50
2023-12-07T01:58:23.239Z,19.30
2023-12-07T02:00:55.228Z,18.00
2023-12-07T02:03:28.539Z,19.10
2023-12-07T02:06:02.331Z,18.60
2023-12-07T02:08:34.149Z,18.70
2023-12-07T02:11:06.713Z,19.20
2023-12-07T02:13:38.945Z,19.60
2023-12-07T02:16:17.378Z,19.20
2023-12-07T02:18:59.501Z,19.50
2023-12-07T02:21:36.877Z,19.50
2023-12-07T02:24:10.521Z,19.60
2023-12-07T02:26:42.357Z,19.90
2023-12-07T02:29:14.159Z,16.10
2023-12-07T02:31:45.991Z,15.30
2023-12-07T02:34:18.060Z,13.80
2023-12-07T02:36:51.206Z,16.50
2023-12-07T02:39:25.487Z,14.10
2023-12-07T02:41:58.546Z,21.10
2023-12-07T02:44:30.572Z,19.40
2023-12-07T02:47:03.606Z,22.80
2023-12-07T02:49:35.598Z,21.80
2023-12-07T02:52:08.268Z,21.50
2023-12-07T02:54:40.091Z,22.20
2023-12-07T02:57:11.897Z,22.20
2023-12-07T02:59:43.636Z,22.00
2023-12-07T03:02:15.422Z,21.10
2023-12-07T03:04:47.251Z,20.00
2023-12-07T03:07:19.127Z,24.20
2023-12-07T03:09:50.886Z,20.70
2023-12-07T03:12:22.819Z,20.00
2023-12-07T03:14:54.815Z,20.90
2023-12-07T03:17:26.765Z,23.50
2023-12-07T03:19:58.589Z,21.50
2023-12-07T03:22:30.727Z,19.80
2023-12-07T03:25:02.820Z,19.00
2023-12-07T03:27:34.610Z,15.90
2023-12-07T03:30:08.079Z,15.10
2023-12-07T03:32:39.898Z,15.30
2023-12-07T03:35:11.708Z,15.80
2023-12-07T03:37:43.472Z,15.00
2023-12-07T03:40:15.905Z,19.80
2023-12-07T03:42:52.521Z,19.90
2023-12-07T03:45:29.547Z,21.60
2023-12-07T03:48:01.501Z,22.30
2023-12-07T03:50:33.414Z,23.00
2023-12-07T03:53:07.513Z,22.50
2023-12-07T03:55:39.938Z,21.60
2023-12-07T03:58:11.894Z,20.50
2023-12-07T04:00:43.730Z,22.20
2023-12-07T04:03:15.725Z,21.00
2023-12-07T04:05:48.057Z,21.10
2023-12-07T04:08:20.725Z,20.70
2023-12-07T04:10:52.512Z,19.60
2023-12-07T04:13:24.338Z,22.80
2023-12-07T04:15:56.499Z,21.40
2023-12-07T04:18:28.404Z,21.10
2023-12-07T04:21:00.216Z,21.40
2023-12-07T04:23:32.018Z,22.40
2023-12-07T04:26:03.894Z,15.10
2023-12-07T04:28:35.783Z,14.70
2023-12-07T04:31:08.348Z,16.50
2023-12-07T04:33:40.371Z,13.90
2023-12-07T04:36:13.237Z,22.00
2023-12-07T04:38:44.988Z,22.40
2023-12-07T04:41:17.044Z,22.80
2023-12-07T04:43:48.785Z,20.70
2023-12-07T04:46:20.788Z,22.00
2023-12-07T04:48:52.737Z,23.50
2023-12-07T04:51:24.549Z,22.50
2023-12-07T04:54:03.169Z,21.30
2023-12-07T04:56:41.612Z,20.30
2023-12-07T04:59:13.436Z,22.00
2023-12-07T05:01:45.254Z,21.30
2023-12-07T05:04:17.145Z,21.70
2023-12-07T05:06:48.936Z,22.40
2023-12-07T05:09:20.703Z,22.10
2023-12-07T05:11:52.479Z,23.10
2023-12-07T05:14:24.281Z,21.60
2023-12-07T05:16:57.092Z,21.00
2023-12-07T05:19:29.121Z,16.00
2023-12-07T05:22:00.927Z,16.00
2023-12-07T05:24:35.615Z,17.30
2023-12-07T05:27:07.939Z,14.40
2023-12-07T05:29:39.997Z,14.70
2023-12-07T05:32:12.077Z,21.60
2023-12-07T05:34:44.165Z,23.40
2023-12-07T05:37:15.939Z,21.60
2023-12-07T05:39:47.691Z,21.10
2023-12-07T05:42:19.973Z,21.60
2023-12-07T05:44:51.813Z,23.40
2023-12-07T05:47:24.487Z,22.00
2023-12-07T05:49:58.700Z,19.80
2023-12-07T05:52:30.499Z,21.00
2023-12-07T05:55:02.641Z,20.50
2023-12-07T05:57:34.503Z,22.30
2023-12-07T06:00:10.318Z,21.80
2023-12-07T06:02:42.068Z,21.20
2023-12-07T06:05:14.261Z,20.80
2023-12-07T06:07:46.039Z,20.70
2023-12-07T06:10:18.030Z,19.60
2023-12-07T06:12:49.901Z,22.40
2023-12-07T06:15:22.179Z,25.70
2023-12-07T06:17:54.062Z,17.90
2023-12-07T06:20:25.979Z,17.20
2023-12-07T06:22:58.896Z,16.30
2023-12-07T06:25:30.764Z,14.30
2023-12-07T06:28:02.593Z,20.20
2023-12-07T06:30:34.447Z,22.00
2023-12-07T06:33:06.305Z,19.80
2023-12-07T06:35:38.120Z,20.80
2023-12-07T06:38:09.977Z,21.10
2023-12-07T06:40:41.894Z,21.10
2023-12-07T06:43:14.444Z,22.40
2023-12-07T06:45:46.296Z,23.70
2023-12-07T06:48:18.136Z,22.10
2023-12-07T06:50:50.027Z,22.70
2023-12-07T06:53:21.811Z,23.80
2023-12-07T06:55:53.613Z,24.30
2023-12-07T06:58:25.670Z,23.60
2023-12-07T07:00:58.611Z,24.80
2023-12-07T07:03:30.606Z,25.60
2023-12-07T07:06:02.540Z,24.90
2023-12-07T07:08:34.285Z,26.50
2023-12-07T07:11:13.842Z,18.10
2023-12-07T07:13:45.745Z,16.90
2023-12-07T07:16:17.537Z,20.70
2023-12-07T07:18:49.476Z,17.90
2023-12-07T07:21:21.625Z,24.20
2023-12-07T07:23:53.401Z,23.30
2023-12-07T07:26:26.213Z,23.80
2023-12-07T07:28:57.982Z,25.10
2023-12-07T07:31:29.777Z,23.10
2023-12-07T07:34:02.023Z,24.10
2023-12-07T07:36:34.361Z,23.30
2023-12-07T07:39:08.780Z,23.60
2023-12-07T07:41:40.562Z,25.00
2023-12-07T07:44:12.325Z,23.30
2023-12-07T07:46:45.362Z,24.10
2023-12-07T07:49:17.208Z,24.50
2023-12-07T07:51:49.034Z,23.10
2023-12-07T07:54:20.847Z,22.10
2023-12-07T07:56:52.664Z,22.30
2023-12-07T07:59:24.467Z,23.70
2023-12-07T08:01:56.232Z,26.20
2023-12-07T08:04:27.997Z,22.30
2023-12-07T08:06:59.774Z,22.50
2023-12-07T08:09:31.702Z,18.50
2023-12-07T08:12:03.525Z,18.10
2023-12-07T08:14:37.184Z,17.30
2023-12-07T08:17:09.101Z,17.90
2023-12-07T08:19:40.910Z,21.10
2023-12-07T08:22:12.779Z,24.00
2023-12-07T08:24:45.464Z,26.30
2023-12-07T08:27:18.470Z,23.70
2023-12-07T08:29:50.228Z,23.80
2023-12-07T08:32:22.135Z,22.40
2023-12-07T08:34:53.951Z,23.60
2023-12-07T08:37:26.034Z,25.30
2023-12-07T08:39:58.354Z,23.40
2023-12-07T08:42:32.651Z,24.80
2023-12-07T08:45:04.674Z,32.00
2023-12-07T08:47:38.170Z,32.30
2023-12-07T08:52:47.605Z,28.90
2023-12-07T08:55:23.266Z,32.90
2023-12-07T08:57:56.337Z,25.10
2023-12-07T09:00:28.163Z,24.60
2023-12-07T09:02:59.967Z,38.10
2023-12-07T09:05:32.492Z,48.30
2023-12-07T09:08:04.473Z,51.60
2023-12-07T09:10:36.339Z,32.30
2023-12-07T09:13:08.254Z,29.20
2023-12-07T09:15:40.090Z,72.30
2023-12-07T09:18:12.668Z,33.20
2023-12-07T09:20:47.027Z,42.70
2023-12-07T09:23:19.281Z,28.00
2023-12-07T09:25:51.066Z,22.10
2023-12-07T09:28:23.092Z,26.20
2023-12-07T09:30:55.670Z,49.80
2023-12-07T09:33:27.543Z,42.70
2023-12-07T09:35:59.374Z,33.40
2023-12-07T09:38:31.144Z,42.80
2023-12-07T09:41:03.034Z,37.90
2023-12-07T09:43:34.829Z,37.70
2023-12-07T09:46:07.716Z,54.70
2023-12-07T09:48:44.656Z,41.80
2023-12-07T09:51:17.280Z,31.70
2023-12-07T09:53:55.035Z,26.50
2023-12-07T09:56:26.997Z,25.00
2023-12-07T09:58:58.756Z,23.90
2023-12-07T10:01:33.389Z,23.00
2023-12-07T10:04:21.397Z,24.00
2023-12-07T10:06:53.575Z,22.60
2023-12-07T10:09:33.027Z,22.40
2023-12-07T10:12:09.803Z,29.00
2023-12-07T10:14:41.725Z,28.50
2023-12-07T10:17:13.979Z,26.00
2023-12-07T10:19:46.006Z,25.80
2023-12-07T10:22:22.393Z,21.10
2023-12-07T10:24:54.392Z,19.00
2023-12-07T10:27:27.139Z,18.00
2023-12-07T10:29:59.364Z,20.50
2023-12-07T10:32:31.271Z,25.90
2023-12-07T10:35:03.863Z,30.80
2023-12-07T10:37:35.737Z,29.00
2023-12-07T10:40:10.874Z,30.40
2023-12-07T10:42:47.080Z,31.20
2023-12-07T10:45:22.438Z,31.90
2023-12-07T10:47:56.357Z,32.30
2023-12-07T10:50:33.442Z,33.50
2023-12-07T10:53:11.188Z,35.30
2023-12-07T10:55:49.780Z,32.70
2023-12-07T10:58:23.993Z,32.10
2023-12-07T11:00:56.776Z,34.20
2023-12-07T11:03:30.836Z,30.90
2023-12-07T11:06:06.910Z,32.60
2023-12-07T11:08:45.322Z,31.80
2023-12-07T11:11:26.109Z,32.70
2023-12-07T11:14:04.977Z,32.50
2023-12-07T11:16:42.164Z,31.30
2023-12-07T11:22:13.994Z,25.90
2023-12-07T11:25:02.523Z,28.40
2023-12-07T11:27:35.456Z,36.40
2023-12-07T11:30:09.103Z,34.40
2023-12-07T11:32:41.841Z,32.90
2023-12-07T11:35:16.728Z,34.00
2023-12-07T11:38:07.155Z,32.50
2023-12-07T11:40:44.366Z,34.50
2023-12-07T11:43:33.039Z,42.30
2023-12-07T11:46:05.164Z,33.70
2023-12-07T11:48:37.043Z,36.50
2023-12-07T11:51:10.061Z,33.50
2023-12-07T11:53:41.832Z,33.30
2023-12-07T11:56:14.888Z,32.70
2023-12-07T11:58:48.720Z,27.50
2023-12-07T12:01:21.951Z,27.30
2023-12-07T12:03:53.862Z,27.30
2023-12-07T12:06:27.528Z,33.50
2023-12-07T12:09:00.747Z,39.80
2023-12-07T12:11:32.761Z,34.60
2023-12-07T12:14:05.335Z,35.90
2023-12-07T12:16:37.531Z,30.00
2023-12-07T12:19:12.209Z,31.30
2023-12-07T12:21:45.847Z,29.30
2023-12-07T12:24:17.697Z,28.90
2023-12-07T12:26:50.289Z,30.50
2023-12-07T12:29:31.168Z,33.60
2023-12-07T12:32:06.856Z,34.70
2023-12-07T12:34:39.091Z,41.00
2023-12-07T12:37:13.271Z,31.20
2023-12-07T12:39:45.114Z,25.90
2023-12-07T12:42:17.300Z,24.80
2023-12-07T12:44:49.142Z,23.50
2023-12-07T12:47:20.987Z,33.90
2023-12-07T12:49:53.418Z,32.40
2023-12-07T12:52:27.803Z,33.50
2023-12-07T12:55:08.563Z,33.00
2023-12-07T12:57:40.414Z,32.10
2023-12-07T13:00:14.556Z,31.10
2023-12-07T13:02:46.497Z,32.40
2023-12-07T13:05:18.392Z,34.20
2023-12-07T13:08:01.192Z,34.10
2023-12-07T13:10:40.244Z,34.90
2023-12-07T13:13:12.078Z,34.00
2023-12-07T13:15:43.934Z,39.10
2023-12-07T13:18:15.810Z,39.90
2023-12-07T13:20:53.853Z,35.70
2023-12-07T13:23:28.360Z,31.50
2023-12-07T13:26:00.303Z,33.50
2023-12-07T13:28:32.312Z,34.70
2023-12-07T13:31:04.496Z,29.50
2023-12-07T13:33:43.132Z,38.00
2023-12-07T13:36:24.211Z,37.00
2023-12-07T13:38:56.040Z,37.80
2023-12-07T13:41:27.864Z,42.30
2023-12-07T13:43:59.630Z,50.90
2023-12-07T13:46:32.454Z,43.50
2023-12-07T13:49:05.453Z,42.80
2023-12-07T13:51:37.253Z,43.40
2023-12-07T13:54:23.303Z,48.20
2023-12-07T13:57:00.979Z,51.40
2023-12-07T13:59:32.751Z,50.10
2023-12-07T14:02:04.636Z,46.80
2023-12-07T14:04:36.949Z,44.50
2023-12-07T14:07:13.256Z,50.30
2023-12-07T14:09:53.693Z,46.80
2023-12-07T14:12:30.710Z,51.50
2023-12-07T14:15:02.787Z,44.70
2023-12-07T14:20:22.352Z,30.40
2023-12-07T14:23:07.077Z,31.20
2023-12-07T14:25:41.117Z,39.30
2023-12-07T14:28:12.967Z,42.60
2023-12-07T14:30:44.778Z,42.60
2023-12-07T14:33:16.897Z,41.90
2023-12-07T14:35:49.898Z,43.50
2023-12-07T14:38:21.781Z,44.90
2023-12-07T14:40:56.112Z,36.50
2023-12-07T14:43:27.940Z,36.00
2023-12-07T14:45:59.686Z,33.20
2023-12-07T14:48:31.588Z,33.30
2023-12-07T14:51:03.808Z,34.10
2023-12-07T14:53:35.803Z,34.10
2023-12-07T14:56:08.595Z,33.00
2023-12-07T14:58:42.328Z,33.70
2023-12-07T15:01:14.665Z,37.00
2023-12-07T15:03:46.590Z,34.50
2023-12-07T15:06:19.271Z,25.90
2023-12-07T15:08:51.162Z,26.30
2023-12-07T15:11:23.038Z,34.90
2023-12-07T15:13:54.805Z,30.60
2023-12-07T15:16:27.375Z,36.60
2023-12-07T15:18:59.565Z,39.80
2023-12-07T15:21:31.529Z,40.40
2023-12-07T15:24:04.436Z,36.70
2023-12-07T15:26:36.529Z,38.00
2023-12-07T15:29:08.450Z,37.10
2023-12-07T15:31:40.229Z,37.80
2023-12-07T15:34:22.365Z,37.00
2023-12-07T15:37:00.336Z,35.60
2023-12-07T15:39:32.170Z,35.20
2023-12-07T15:42:04.469Z,35.10
2023-12-07T15:44:36.517Z,35.30
2023-12-07T15:47:08.660Z,33.60
2023-12-07T15:49:42.364Z,34.70
2023-12-07T15:52:14.361Z,38.10
2023-12-07T15:54:46.367Z,39.40
2023-12-07T15:57:18.218Z,32.40
2023-12-07T15:59:50.025Z,31.90
2023-12-07T16:02:21.919Z,30.80
2023-12-07T16:04:54.544Z,32.60
2023-12-07T16:07:26.491Z,39.50
2023-12-07T16:09:58.318Z,39.70
2023-12-07T16:12:30.064Z,36.90
2023-12-07T16:15:01.919Z,40.60
2023-12-07T16:17:34.006Z,39.50
2023-12-07T16:20:11.327Z,38.20
2023-12-07T16:22:43.958Z,36.70
2023-12-07T16:25:22.532Z,37.70
2023-12-07T16:27:55.264Z,37.50
2023-12-07T16:30:31.418Z,38.10
2023-12-07T16:33:06.176Z,36.60
2023-12-07T16:35:38.012Z,37.60
2023-12-07T16:38:10.351Z,37.10
2023-12-07T16:40:42.149Z,34.40
2023-12-07T16:43:14.333Z,35.40
2023-12-07T16:45:47.696Z,35.30
2023-12-07T16:48:19.599Z,27.90
2023-12-07T16:50:51.482Z,28.30
2023-12-07T16:53:23.714Z,29.10
2023-12-07T16:55:56.936Z,27.40
2023-12-07T16:58:30.932Z,36.00
2023-12-07T17:01:04.121Z,36.80
2023-12-07T17:03:36.470Z,41.50
2023-12-07T17:06:12.080Z,41.80
2023-12-07T17:08:44.236Z,36.80
2023-12-07T17:11:16.194Z,39.20
2023-12-07T17:13:47.955Z,39.20
2023-12-07T17:16:19.732Z,43.70
2023-12-07T17:18:53.059Z,45.70
2023-12-07T17:23:55.449Z,46.60
2023-12-07T17:26:30.888Z,45.60
2023-12-07T17:29:08.764Z,45.50
2023-12-07T17:31:41.899Z,47.60
2023-12-07T17:34:13.965Z,47.60
2023-12-07T17:36:45.800Z,49.90
2023-12-07T17:39:17.728Z,43.00
2023-12-07T17:41:49.770Z,37.10
2023-12-07T17:44:21.662Z,37.80
2023-12-07T17:46:53.471Z,35.10
2023-12-07T17:49:25.282Z,36.20
2023-12-07T17:51:57.081Z,39.10
2023-12-07T17:54:28.843Z,38.50
2023-12-07T17:57:00.755Z,40.30
2023-12-07T17:59:32.568Z,39.30
2023-12-07T18:02:04.572Z,42.80
2023-12-07T18:04:37.586Z,42.70
2023-12-07T18:07:09.399Z,50.20
2023-12-07T18:09:42.948Z,44.90
2023-12-07T18:14:45.171Z,42.50
2023-12-07T18:17:21.755Z,44.80
2023-12-07T18:19:53.593Z,47.60
2023-12-07T18:22:28.257Z,47.20
2023-12-07T18:25:00.056Z,43.00
2023-12-07T18:27:31.848Z,43.60
2023-12-07T18:30:03.827Z,36.90
2023-12-07T18:32:36.104Z,33.40
2023-12-07T18:35:09.669Z,33.50
2023-12-07T18:37:41.717Z,34.80
2023-12-07T18:40:14.466Z,44.10
2023-12-07T18:42:46.292Z,43.40
2023-12-07T18:45:18.235Z,40.50
2023-12-07T18:47:50.411Z,48.80
2023-12-07T18:50:22.321Z,44.00
2023-12-07T18:52:54.104Z,47.10
2023-12-07T18:55:25.999Z,47.50
2023-12-07T18:57:58.055Z,49.90
2023-12-07T19:00:31.865Z,49.80
2023-12-07T19:03:03.709Z,47.50
2023-12-07T19:05:35.688Z,51.70
2023-12-07T19:08:11.454Z,55.40
2023-12-07T19:10:45.310Z,51.10
2023-12-07T19:13:17.030Z,51.80
2023-12-07T19:15:50.340Z,50.10
2023-12-07T19:18:22.462Z,35.20
2023-12-07T19:20:54.446Z,33.90
2023-12-07T19:23:26.331Z,36.10
2023-12-07T19:25:58.162Z,30.50
2023-12-07T19:28:29.916Z,43.10
2023-12-07T19:31:01.723Z,42.70
2023-12-07T19:33:34.271Z,43.60
2023-12-07T19:36:06.794Z,46.10
2023-12-07T19:38:38.654Z,41.70
2023-12-07T19:41:12.005Z,41.80
2023-12-07T19:43:44.034Z,41.80
2023-12-07T19:46:22.259Z,45.70
2023-12-07T19:48:54.142Z,46.10
2023-12-07T19:51:26.007Z,45.00
2023-12-07T19:53:58.090Z,49.00
2023-12-07T19:56:30.331Z,49.10
2023-12-07T19:59:02.138Z,47.60
2023-12-07T20:01:33.872Z,44.80
2023-12-07T20:04:05.787Z,45.50
2023-12-07T20:06:39.646Z,35.40
2023-12-07T20:09:15.293Z,33.70
2023-12-07T20:11:47.553Z,33.10
2023-12-07T20:14:19.615Z,38.70
2023-12-07T20:16:51.508Z,46.00
2023-12-07T20:19:24.143Z,45.60
2023-12-07T20:21:56.112Z,47.50
2023-12-07T20:24:27.854Z,46.00
2023-12-07T20:26:59.596Z,48.60
2023-12-07T20:29:31.448Z,48.70
2023-12-07T20:32:03.275Z,54.70
2023-12-07T20:34:35.073Z,53.10
2023-12-07T20:37:07.391Z,50.00
2023-12-07T20:39:39.302Z,49.60
2023-12-07T20:42:11.269Z,48.10
2023-12-07T20:44:43.529Z,49.80
2023-12-07T20:47:15.412Z,48.90
2023-12-07T20:49:47.263Z,47.80
2023-12-07T20:52:20.472Z,50.90
2023-12-07T20:54:52.807Z,38.10
2023-12-07T20:57:24.967Z,38.10
2023-12-07T20:59:57.085Z,41.50
2023-12-07T21:02:28.909Z,36.60
2023-12-07T21:05:01.564Z,46.60
2023-12-07T21:07:33.569Z,46.90
2023-12-07T21:10:05.814Z,49.70
2023-12-07T21:12:37.571Z,49.40
2023-12-07T21:15:10.918Z,52.40
2023-12-07T21:17:42.885Z,52.00
2023-12-07T21:20:14.968Z,53.80
2023-12-07T21:22:48.590Z,52.90
2023-12-07T21:25:20.406Z,58.50
2023-12-07T21:27:52.170Z,54.80
2023-12-07T21:30:23.938Z,55.60
2023-12-07T21:32:55.810Z,62.30
2023-12-07T21:35:27.631Z,57.70
2023-12-07T21:37:59.401Z,57.30
2023-12-07T21:40:31.175Z,54.50
2023-12-07T21:43:03.268Z,47.40
2023-12-07T21:45:36.606Z,41.90
2023-12-07T21:48:10.051Z,44.00
2023-12-07T21:50:41.912Z,45.60
2023-12-07T21:53:13.727Z,52.20
2023-12-07T21:55:45.633Z,54.30
2023-12-07T21:58:17.723Z,55.50
2023-12-07T22:00:49.549Z,56.30
2023-12-07T22:03:21.610Z,56.10
2023-12-07T22:05:53.456Z,59.90
2023-12-07T22:08:25.210Z,59.70
2023-12-07T22:10:56.960Z,60.90
2023-12-07T22:13:28.738Z,58.70
2023-12-07T22:16:00.483Z,57.00
2023-12-07T22:18:32.392Z,57.90
2023-12-07T22:21:04.767Z,56.30
2023-12-07T22:23:36.596Z,54.60
2023-12-07T22:26:09.109Z,63.40
2023-12-07T22:28:40.840Z,55.60
2023-12-07T22:31:12.635Z,59.10
2023-12-07T22:33:44.596Z,44.50
2023-12-07T22:36:31.727Z,44.60
2023-12-07T22:39:03.674Z,47.30
2023-12-07T22:41:35.488Z,45.30
2023-12-07T22:44:07.429Z,59.20
2023-12-07T22:46:39.580Z,59.50
2023-12-07T22:49:11.460Z,60.00
2023-12-07T22:51:43.555Z,57.50
2023-12-07T22:54:15.377Z,62.00
2023-12-07T22:56:47.428Z,60.60
2023-12-07T22:59:19.330Z,63.50
2023-12-07T23:01:51.194Z,59.60
2023-12-07T23:04:23.044Z,58.80
2023-12-07T23:06:54.906Z,56.80
2023-12-07T23:09:26.694Z,62.10
2023-12-07T23:11:58.518Z,61.20
2023-12-07T23:14:30.429Z,59.40
2023-12-07T23:17:02.182Z,58.90
2023-12-07T23:19:34.064Z,55.60
2023-12-07T23:22:06.050Z,46.00
2023-12-07T23:24:37.902Z,42.60
2023-12-07T23:27:09.796Z,42.70
2023-12-07T23:29:52.519Z,42.30
2023-12-07T23:32:26.758Z,52.30
2023-12-07T23:34:58.594Z,47.70
2023-12-07T23:37:31.642Z,51.60
2023-12-07T23:40:03.807Z,53.90
2023-12-07T23:42:35.600Z,50.40
2023-12-07T23:45:09.355Z,52.30
2023-12-07T23:47:41.376Z,51.00
2023-12-07T23:50:13.464Z,54.60
2023-12-07T23:52:45.267Z,58.10
2023-12-07T23:55:17.178Z,58.60
2023-12-07T23:57:49.036Z,56.20
